sensor_id;sensor_type;location;lat;lon;timestamp;temperature;humidity
3256;DHT22;1640;48.504;9.224;2023-02-26T00:00:23;-0.40;10.00
3256;DHT22;1640;48.504;9.224;2023-02-26T00:02:51;-0.40;8.60
3256;DHT22;1640;48.504;9.224;2023-02-26T00:05:18;-0.40;11.90
3256;DHT22;1640;48.504;9.224;2023-02-26T00:07:46;-0.40;11.60
3256;DHT22;1640;48.504;9.224;2023-02-26T00:10:15;-0.50;12.30
3256;DHT22;1640;48.504;9.224;2023-02-26T00:12:43;-0.50;10.50
3256;DHT22;1640;48.504;9.224;2023-02-26T00:15:13;-0.60;11.20
3256;DHT22;1640;48.504;9.224;2023-02-26T00:17:50;-0.60;9.50
3256;DHT22;1640;48.504;9.224;2023-02-26T00:20:19;-0.70;8.50
3256;DHT22;1640;48.504;9.224;2023-02-26T00:22:47;-0.70;7.70
3256;DHT22;1640;48.504;9.224;2023-02-26T00:25:14;-0.60;9.90
3256;DHT22;1640;48.504;9.224;2023-02-26T00:27:43;-0.70;7.60
3256;DHT22;1640;48.504;9.224;2023-02-26T00:30:11;-0.60;9.80
3256;DHT22;1640;48.504;9.224;2023-02-26T00:32:39;-0.60;9.30
3256;DHT22;1640;48.504;9.224;2023-02-26T00:35:12;-0.60;8.50
3256;DHT22;1640;48.504;9.224;2023-02-26T00:37:59;-0.70;8.30
3256;DHT22;1640;48.504;9.224;2023-02-26T00:40:34;-0.70;6.40
3256;DHT22;1640;48.504;9.224;2023-02-26T00:43:03;-0.60;5.50
3256;DHT22;1640;48.504;9.224;2023-02-26T00:45:31;-0.60;6.20
3256;DHT22;1640;48.504;9.224;2023-02-26T00:51:10;-0.70;2.60
3256;DHT22;1640;48.504;9.224;2023-02-26T00:53:45;-0.60;1.70
3256;DHT22;1640;48.504;9.224;2023-02-26T00:56:14;-0.60;1.60
3256;DHT22;1640;48.504;9.224;2023-02-26T00:58:41;-0.50;4.00
3256;DHT22;1640;48.504;9.224;2023-02-26T01:01:09;-0.50;4.70
3256;DHT22;1640;48.504;9.224;2023-02-26T01:03:37;-0.40;5.40
3256;DHT22;1640;48.504;9.224;2023-02-26T01:06:10;-0.40;8.10
3256;DHT22;1640;48.504;9.224;2023-02-26T01:08:43;-0.40;8.80
3256;DHT22;1640;48.504;9.224;2023-02-26T01:11:13;-0.40;7.40
3256;DHT22;1640;48.504;9.224;2023-02-26T01:13:41;-0.30;10.20
3256;DHT22;1640;48.504;9.224;2023-02-26T01:16:12;-0.30;9.70
3256;DHT22;1640;48.504;9.224;2023-02-26T01:18:47;-0.30;9.90
3256;DHT22;1640;48.504;9.224;2023-02-26T01:21:21;-0.30;11.80
3256;DHT22;1640;48.504;9.224;2023-02-26T01:23:51;-0.20;13.50
3256;DHT22;1640;48.504;9.224;2023-02-26T01:26:22;-0.20;16.50
3256;DHT22;1640;48.504;9.224;2023-02-26T01:28:50;-0.10;17.30
3256;DHT22;1640;48.504;9.224;2023-02-26T01:31:31;-0.10;21.60
3256;DHT22;1640;48.504;9.224;2023-02-26T01:34:03;-0.10;21.50
3256;DHT22;1640;48.504;9.224;2023-02-26T01:36:39;-0.20;19.50
3256;DHT22;1640;48.504;9.224;2023-02-26T01:39:17;-0.20;22.80
3256;DHT22;1640;48.504;9.224;2023-02-26T01:41:48;-0.20;20.50
3256;DHT22;1640;48.504;9.224;2023-02-26T01:44:22;-0.10;20.90
3256;DHT22;1640;48.504;9.224;2023-02-26T01:47:03;-0.10;22.10
3256;DHT22;1640;48.504;9.224;2023-02-26T01:49:37;-0.10;25.80
3256;DHT22;1640;48.504;9.224;2023-02-26T01:52:58;-0.20;25.10
3256;DHT22;1640;48.504;9.224;2023-02-26T01:54:54;-0.30;23.40
3256;DHT22;1640;48.504;9.224;2023-02-26T01:57:22;-0.20;21.10
3256;DHT22;1640;48.504;9.224;2023-02-26T01:59:51;-0.20;22.90
3256;DHT22;1640;48.504;9.224;2023-02-26T02:02:21;-0.20;23.80
3256;DHT22;1640;48.504;9.224;2023-02-26T02:04:49;-0.20;25.60
3256;DHT22;1640;48.504;9.224;2023-02-26T02:07:19;-0.20;26.70
3256;DHT22;1640;48.504;9.224;2023-02-26T02:09:46;-0.20;27.20
3256;DHT22;1640;48.504;9.224;2023-02-26T02:12:23;-0.30;27.10
3256;DHT22;1640;48.504;9.224;2023-02-26T02:15:03;-0.30;26.40
3256;DHT22;1640;48.504;9.224;2023-02-26T02:17:39;-0.40;23.90
3256;DHT22;1640;48.504;9.224;2023-02-26T02:20:26;-0.40;27.10
3256;DHT22;1640;48.504;9.224;2023-02-26T02:23:07;-0.50;23.00
3256;DHT22;1640;48.504;9.224;2023-02-26T02:28:43;-0.70;19.70
3256;DHT22;1640;48.504;9.224;2023-02-26T02:31:19;-0.70;20.10
3256;DHT22;1640;48.504;9.224;2023-02-26T02:33:50;-0.70;18.70
3256;DHT22;1640;48.504;9.224;2023-02-26T02:36:23;-0.70;18.80
3256;DHT22;1640;48.504;9.224;2023-02-26T02:38:56;-0.70;17.60
3256;DHT22;1640;48.504;9.224;2023-02-26T02:41:28;-0.60;20.00
3256;DHT22;1640;48.504;9.224;2023-02-26T02:43:59;-0.60;22.60
3256;DHT22;1640;48.504;9.224;2023-02-26T02:46:31;-0.70;25.20
3256;DHT22;1640;48.504;9.224;2023-02-26T02:49:01;-0.70;23.90
3256;DHT22;1640;48.504;9.224;2023-02-26T02:51:32;-0.70;23.40
3256;DHT22;1640;48.504;9.224;2023-02-26T02:54:04;-0.70;22.90
3256;DHT22;1640;48.504;9.224;2023-02-26T02:56:34;-0.80;21.80
3256;DHT22;1640;48.504;9.224;2023-02-26T02:59:11;-0.70;23.60
3256;DHT22;1640;48.504;9.224;2023-02-26T03:01:43;-0.70;24.10
3256;DHT22;1640;48.504;9.224;2023-02-26T03:04:13;-0.70;26.80
3256;DHT22;1640;48.504;9.224;2023-02-26T03:06:42;-0.80;28.10
3256;DHT22;1640;48.504;9.224;2023-02-26T03:09:12;-0.90;26.70
3256;DHT22;1640;48.504;9.224;2023-02-26T03:11:40;-1.00;26.60
3256;DHT22;1640;48.504;9.224;2023-02-26T03:14:08;-1.00;24.00
3256;DHT22;1640;48.504;9.224;2023-02-26T03:16:49;-1.00;22.80
3256;DHT22;1640;48.504;9.224;2023-02-26T03:19:26;-1.10;19.70
3256;DHT22;1640;48.504;9.224;2023-02-26T03:22:01;-1.10;20.10
3256;DHT22;1640;48.504;9.224;2023-02-26T03:24:34;-1.20;20.40
3256;DHT22;1640;48.504;9.224;2023-02-26T03:27:06;-1.30;19.00
3256;DHT22;1640;48.504;9.224;2023-02-26T03:29:39;-1.40;16.60
3256;DHT22;1640;48.504;9.224;2023-02-26T03:32:13;-1.40;14.80
3256;DHT22;1640;48.504;9.224;2023-02-26T03:34:46;-1.50;11.70
3256;DHT22;1640;48.504;9.224;2023-02-26T03:37:18;-1.60;9.80
3256;DHT22;1640;48.504;9.224;2023-02-26T03:39:51;-1.60;8.30
3256;DHT22;1640;48.504;9.224;2023-02-26T03:42:23;-1.70;6.00
3256;DHT22;1640;48.504;9.224;2023-02-26T03:44:55;-1.70;4.00
3256;DHT22;1640;48.504;9.224;2023-02-26T03:47:25;-1.80;4.30
3256;DHT22;1640;48.504;9.224;2023-02-26T03:49:57;-1.80;1.80
3256;DHT22;1640;48.504;9.224;2023-02-26T03:52:28;-1.90;1.10
3256;DHT22;1640;48.504;9.224;2023-02-26T03:55:00;-2.00;99.90
3256;DHT22;1640;48.504;9.224;2023-02-26T03:57:29;-2.00;99.90
3256;DHT22;1640;48.504;9.224;2023-02-26T03:59:57;-2.10;99.90
3256;DHT22;1640;48.504;9.224;2023-02-26T04:02:28;-2.10;99.90
3256;DHT22;1640;48.504;9.224;2023-02-26T04:05:04;-2.20;99.90
3256;DHT22;1640;48.504;9.224;2023-02-26T04:07:33;-2.20;99.90
3256;DHT22;1640;48.504;9.224;2023-02-26T04:10:00;-2.30;99.90
3256;DHT22;1640;48.504;9.224;2023-02-26T04:12:29;-2.40;99.90
3256;DHT22;1640;48.504;9.224;2023-02-26T04:14:56;-2.40;99.90
3256;DHT22;1640;48.504;9.224;2023-02-26T04:17:26;-2.40;99.90
3256;DHT22;1640;48.504;9.224;2023-02-26T04:19:53;-2.40;99.90
3256;DHT22;1640;48.504;9.224;2023-02-26T04:22:21;-2.50;99.90
3256;DHT22;1640;48.504;9.224;2023-02-26T04:24:48;-2.50;99.90
3256;DHT22;1640;48.504;9.224;2023-02-26T04:27:16;-2.60;99.90
3256;DHT22;1640;48.504;9.224;2023-02-26T04:29:44;-2.60;99.90
3256;DHT22;1640;48.504;9.224;2023-02-26T04:32:11;-2.70;99.90
3256;DHT22;1640;48.504;9.224;2023-02-26T04:34:40;-2.70;99.90
3256;DHT22;1640;48.504;9.224;2023-02-26T04:37:08;-2.70;99.90
3256;DHT22;1640;48.504;9.224;2023-02-26T04:39:36;-2.80;99.90
3256;DHT22;1640;48.504;9.224;2023-02-26T04:42:03;-2.80;99.90
3256;DHT22;1640;48.504;9.224;2023-02-26T04:44:31;-2.80;99.90
3256;DHT22;1640;48.504;9.224;2023-02-26T04:46:58;-2.70;99.90
3256;DHT22;1640;48.504;9.224;2023-02-26T04:49:26;-2.60;99.90
3256;DHT22;1640;48.504;9.224;2023-02-26T04:51:55;-2.60;99.90
3256;DHT22;1640;48.504;9.224;2023-02-26T04:54:22;-2.50;99.90
3256;DHT22;1640;48.504;9.224;2023-02-26T04:56:50;-2.50;99.90
3256;DHT22;1640;48.504;9.224;2023-02-26T04:59:17;-2.40;99.90
3256;DHT22;1640;48.504;9.224;2023-02-26T05:01:45;-2.30;99.90
3256;DHT22;1640;48.504;9.224;2023-02-26T05:04:13;-2.30;99.90
3256;DHT22;1640;48.504;9.224;2023-02-26T05:06:40;-2.30;99.90
3256;DHT22;1640;48.504;9.224;2023-02-26T05:09:09;-2.20;99.90
3256;DHT22;1640;48.504;9.224;2023-02-26T05:11:37;-2.20;99.90
3256;DHT22;1640;48.504;9.224;2023-02-26T05:14:04;-2.10;99.90
3256;DHT22;1640;48.504;9.224;2023-02-26T05:16:32;-2.10;99.90
3256;DHT22;1640;48.504;9.224;2023-02-26T05:18:59;-2.10;99.90
3256;DHT22;1640;48.504;9.224;2023-02-26T05:21:27;-2.00;99.90
3256;DHT22;1640;48.504;9.224;2023-02-26T05:23:54;-1.90;99.90
3256;DHT22;1640;48.504;9.224;2023-02-26T05:26:23;-1.90;99.90
3256;DHT22;1640;48.504;9.224;2023-02-26T05:28:51;-1.90;99.90
3256;DHT22;1640;48.504;9.224;2023-02-26T05:31:19;-1.80;99.90
3256;DHT22;1640;48.504;9.224;2023-02-26T05:33:46;-1.80;99.90
3256;DHT22;1640;48.504;9.224;2023-02-26T05:36:14;-1.80;99.90
3256;DHT22;1640;48.504;9.224;2023-02-26T05:38:41;-1.80;99.90
3256;DHT22;1640;48.504;9.224;2023-02-26T05:41:09;-1.80;99.90
3256;DHT22;1640;48.504;9.224;2023-02-26T05:43:38;-1.80;99.90
3256;DHT22;1640;48.504;9.224;2023-02-26T05:46:07;-1.90;99.90
3256;DHT22;1640;48.504;9.224;2023-02-26T05:48:34;-1.90;99.90
3256;DHT22;1640;48.504;9.224;2023-02-26T05:51:02;-2.00;99.90
3256;DHT22;1640;48.504;9.224;2023-02-26T05:53:29;-2.10;99.90
3256;DHT22;1640;48.504;9.224;2023-02-26T05:55:57;-2.10;99.90
3256;DHT22;1640;48.504;9.224;2023-02-26T05:58:25;-2.20;99.90
3256;DHT22;1640;48.504;9.224;2023-02-26T06:00:53;-2.20;99.90
3256;DHT22;1640;48.504;9.224;2023-02-26T06:03:21;-2.20;99.90
3256;DHT22;1640;48.504;9.224;2023-02-26T06:05:49;-2.20;99.90
3256;DHT22;1640;48.504;9.224;2023-02-26T06:08:16;-2.30;99.90
3256;DHT22;1640;48.504;9.224;2023-02-26T06:10:44;-2.20;99.90
3256;DHT22;1640;48.504;9.224;2023-02-26T06:13:12;-2.10;99.90
3256;DHT22;1640;48.504;9.224;2023-02-26T06:15:39;-2.00;99.90
3256;DHT22;1640;48.504;9.224;2023-02-26T06:18:08;-2.00;99.90
3256;DHT22;1640;48.504;9.224;2023-02-26T06:20:36;-2.00;99.90
3256;DHT22;1640;48.504;9.224;2023-02-26T06:23:03;-1.90;99.90
3256;DHT22;1640;48.504;9.224;2023-02-26T06:25:31;-1.90;99.90
3256;DHT22;1640;48.504;9.224;2023-02-26T06:27:58;-1.90;99.90
3256;DHT22;1640;48.504;9.224;2023-02-26T06:30:26;-2.00;99.90
3256;DHT22;1640;48.504;9.224;2023-02-26T06:32:53;-2.00;99.90
3256;DHT22;1640;48.504;9.224;2023-02-26T06:35:22;-2.10;99.90
3256;DHT22;1640;48.504;9.224;2023-02-26T06:37:50;-2.00;99.90
3256;DHT22;1640;48.504;9.224;2023-02-26T06:40:18;-1.90;99.90
3256;DHT22;1640;48.504;9.224;2023-02-26T06:42:45;-1.90;99.90
3256;DHT22;1640;48.504;9.224;2023-02-26T06:45:13;-1.80;99.90
3256;DHT22;1640;48.504;9.224;2023-02-26T06:47:40;-1.70;99.90
3256;DHT22;1640;48.504;9.224;2023-02-26T06:50:10;-1.70;99.90
3256;DHT22;1640;48.504;9.224;2023-02-26T06:52:39;-1.60;99.90
3256;DHT22;1640;48.504;9.224;2023-02-26T06:55:08;-1.50;99.90
3256;DHT22;1640;48.504;9.224;2023-02-26T06:57:35;-1.40;99.90
3256;DHT22;1640;48.504;9.224;2023-02-26T07:00:05;-1.30;1.40
3256;DHT22;1640;48.504;9.224;2023-02-26T07:02:33;-1.30;9.70
3256;DHT22;1640;48.504;9.224;2023-02-26T07:05:01;-1.30;8.30
3256;DHT22;1640;48.504;9.224;2023-02-26T07:07:28;-1.40;9.90
3256;DHT22;1640;48.504;9.224;2023-02-26T07:09:57;-1.30;9.20
3256;DHT22;1640;48.504;9.224;2023-02-26T07:12:25;-1.30;8.70
3256;DHT22;1640;48.504;9.224;2023-02-26T07:14:53;-1.20;10.10
3256;DHT22;1640;48.504;9.224;2023-02-26T07:17:21;-1.20;16.60
3256;DHT22;1640;48.504;9.224;2023-02-26T07:19:49;-1.20;18.30
3256;DHT22;1640;48.504;9.224;2023-02-26T07:22:18;-1.20;17.60
3256;DHT22;1640;48.504;9.224;2023-02-26T07:24:46;-1.30;17.20
3256;DHT22;1640;48.504;9.224;2023-02-26T07:27:16;-1.20;17.70
3256;DHT22;1640;48.504;9.224;2023-02-26T07:29:43;-1.30;14.90
3256;DHT22;1640;48.504;9.224;2023-02-26T07:32:11;-1.20;11.40
3256;DHT22;1640;48.504;9.224;2023-02-26T07:34:38;-1.20;12.20
3256;DHT22;1640;48.504;9.224;2023-02-26T07:37:06;-1.00;10.50
3256;DHT22;1640;48.504;9.224;2023-02-26T07:39:34;-1.00;13.40
3256;DHT22;1640;48.504;9.224;2023-02-26T07:42:01;-1.20;12.70
3256;DHT22;1640;48.504;9.224;2023-02-26T07:44:30;-1.10;8.30
3256;DHT22;1640;48.504;9.224;2023-02-26T07:46:58;-1.10;5.90
3256;DHT22;1640;48.504;9.224;2023-02-26T07:49:25;-1.10;6.00
3256;DHT22;1640;48.504;9.224;2023-02-26T07:51:53;-1.00;10.60
3256;DHT22;1640;48.504;9.224;2023-02-26T07:54:20;-1.00;10.80
3256;DHT22;1640;48.504;9.224;2023-02-26T07:56:48;-1.00;9.40
3256;DHT22;1640;48.504;9.224;2023-02-26T07:59:16;-1.00;10.70
3256;DHT22;1640;48.504;9.224;2023-02-26T08:01:45;-1.00;15.00
3256;DHT22;1640;48.504;9.224;2023-02-26T08:04:13;-1.10;10.90
3256;DHT22;1640;48.504;9.224;2023-02-26T08:06:40;-1.00;6.60
3256;DHT22;1640;48.504;9.224;2023-02-26T08:09:08;-0.90;12.10
3256;DHT22;1640;48.504;9.224;2023-02-26T08:11:35;-1.00;15.80
3256;DHT22;1640;48.504;9.224;2023-02-26T08:14:05;-0.90;13.20
3256;DHT22;1640;48.504;9.224;2023-02-26T08:16:33;-0.70;13.40
3256;DHT22;1640;48.504;9.224;2023-02-26T08:19:02;-0.60;16.70
3256;DHT22;1640;48.504;9.224;2023-02-26T08:21:30;-0.60;19.20
3256;DHT22;1640;48.504;9.224;2023-02-26T08:23:58;-0.50;23.40
3256;DHT22;1640;48.504;9.224;2023-02-26T08:26:25;-0.40;22.20
3256;DHT22;1640;48.504;9.224;2023-02-26T08:28:53;-0.20;24.90
3256;DHT22;1640;48.504;9.224;2023-02-26T08:31:21;-0.30;23.40
3256;DHT22;1640;48.504;9.224;2023-02-26T08:33:48;-0.50;13.70
3256;DHT22;1640;48.504;9.224;2023-02-26T08:36:17;-0.60;7.50
3256;DHT22;1640;48.504;9.224;2023-02-26T08:38:47;-0.70;2.60
3256;DHT22;1640;48.504;9.224;2023-02-26T08:41:14;-0.80;99.90
3256;DHT22;1640;48.504;9.224;2023-02-26T08:43:43;-0.80;99.90
3256;DHT22;1640;48.504;9.224;2023-02-26T08:46:11;-0.70;99.90
3256;DHT22;1640;48.504;9.224;2023-02-26T08:48:38;-0.70;99.90
3256;DHT22;1640;48.504;9.224;2023-02-26T08:51:06;-0.60;99.90
3256;DHT22;1640;48.504;9.224;2023-02-26T08:53:35;-0.70;7.70
3256;DHT22;1640;48.504;9.224;2023-02-26T08:56:03;-0.80;9.30
3256;DHT22;1640;48.504;9.224;2023-02-26T08:58:30;-0.70;1.80
3256;DHT22;1640;48.504;9.224;2023-02-26T09:00:58;-0.60;11.30
3256;DHT22;1640;48.504;9.224;2023-02-26T09:03:25;-0.50;8.70
3256;DHT22;1640;48.504;9.224;2023-02-26T09:05:53;-0.30;10.20
3256;DHT22;1640;48.504;9.224;2023-02-26T09:08:21;-0.30;13.00
3256;DHT22;1640;48.504;9.224;2023-02-26T09:10:50;-0.30;16.60
3256;DHT22;1640;48.504;9.224;2023-02-26T09:13:18;-0.20;22.10
3256;DHT22;1640;48.504;9.224;2023-02-26T09:15:48;-0.20;24.50
3256;DHT22;1640;48.504;9.224;2023-02-26T09:18:15;-0.30;31.10
3256;DHT22;1640;48.504;9.224;2023-02-26T09:20:44;-0.40;35.00
3256;DHT22;1640;48.504;9.224;2023-02-26T09:23:12;-0.40;34.20
3256;DHT22;1640;48.504;9.224;2023-02-26T09:25:39;-0.20;35.30
3256;DHT22;1640;48.504;9.224;2023-02-26T09:28:08;0.00;45.70
3256;DHT22;1640;48.504;9.224;2023-02-26T09:30:36;0.10;52.70
3256;DHT22;1640;48.504;9.224;2023-02-26T09:33:04;0.00;56.20
3256;DHT22;1640;48.504;9.224;2023-02-26T09:35:31;-0.10;55.50
3256;DHT22;1640;48.504;9.224;2023-02-26T09:37:59;-0.20;46.80
3256;DHT22;1640;48.504;9.224;2023-02-26T09:40:35;-0.20;47.60
3256;DHT22;1640;48.504;9.224;2023-02-26T09:43:30;-0.10;48.30
3256;DHT22;1640;48.504;9.224;2023-02-26T09:46:08;-0.10;51.40
3256;DHT22;1640;48.504;9.224;2023-02-26T09:48:38;-0.20;48.60
3256;DHT22;1640;48.504;9.224;2023-02-26T09:51:08;-0.20;52.00
3256;DHT22;1640;48.504;9.224;2023-02-26T09:53:40;-0.20;50.40
3256;DHT22;1640;48.504;9.224;2023-02-26T09:56:14;-0.40;58.20
3256;DHT22;1640;48.504;9.224;2023-02-26T09:58:44;-0.50;52.50
3256;DHT22;1640;48.504;9.224;2023-02-26T10:01:17;-0.60;53.50
3256;DHT22;1640;48.504;9.224;2023-02-26T10:03:54;-0.50;52.50
3256;DHT22;1640;48.504;9.224;2023-02-26T10:06:26;-0.30;50.20
3256;DHT22;1640;48.504;9.224;2023-02-26T10:09:13;-0.10;52.40
3256;DHT22;1640;48.504;9.224;2023-02-26T10:11:49;0.00;52.70
3256;DHT22;1640;48.504;9.224;2023-02-26T10:14:23;0.20;55.50
3256;DHT22;1640;48.504;9.224;2023-02-26T10:16:57;0.40;59.20
3256;DHT22;1640;48.504;9.224;2023-02-26T10:19:28;0.70;64.20
3256;DHT22;1640;48.504;9.224;2023-02-26T10:22:01;0.70;72.20
3256;DHT22;1640;48.504;9.224;2023-02-26T10:24:37;0.70;69.80
3256;DHT22;1640;48.504;9.224;2023-02-26T10:27:12;0.60;69.80
3256;DHT22;1640;48.504;9.224;2023-02-26T10:29:46;0.70;71.50
3256;DHT22;1640;48.504;9.224;2023-02-26T10:32:23;0.80;70.20
3256;DHT22;1640;48.504;9.224;2023-02-26T10:34:55;0.90;72.90
3256;DHT22;1640;48.504;9.224;2023-02-26T10:37:41;1.20;72.30
3256;DHT22;1640;48.504;9.224;2023-02-26T10:40:15;1.50;74.40
3256;DHT22;1640;48.504;9.224;2023-02-26T10:42:47;1.40;73.90
3256;DHT22;1640;48.504;9.224;2023-02-26T10:45:26;1.40;75.10
3256;DHT22;1640;48.504;9.224;2023-02-26T10:48:06;1.30;75.10
3256;DHT22;1640;48.504;9.224;2023-02-26T10:50:39;1.20;74.20
3256;DHT22;1640;48.504;9.224;2023-02-26T10:53:10;1.00;73.80
3256;DHT22;1640;48.504;9.224;2023-02-26T10:55:41;0.90;72.60
3256;DHT22;1640;48.504;9.224;2023-02-26T10:58:14;0.60;70.30
3256;DHT22;1640;48.504;9.224;2023-02-26T11:00:46;0.60;67.30
3256;DHT22;1640;48.504;9.224;2023-02-26T11:03:16;0.60;66.50
3256;DHT22;1640;48.504;9.224;2023-02-26T11:05:45;0.60;65.90
3256;DHT22;1640;48.504;9.224;2023-02-26T11:08:18;0.60;64.70
3256;DHT22;1640;48.504;9.224;2023-02-26T11:10:50;0.40;65.60
3256;DHT22;1640;48.504;9.224;2023-02-26T11:13:20;0.20;60.40
3256;DHT22;1640;48.504;9.224;2023-02-26T11:15:51;0.30;57.50
3256;DHT22;1640;48.504;9.224;2023-02-26T11:18:22;0.20;57.00
3256;DHT22;1640;48.504;9.224;2023-02-26T11:20:53;0.50;53.60
3256;DHT22;1640;48.504;9.224;2023-02-26T11:23:24;0.90;57.30
3256;DHT22;1640;48.504;9.224;2023-02-26T11:25:56;1.10;66.50
3256;DHT22;1640;48.504;9.224;2023-02-26T11:28:31;1.20;66.30
3256;DHT22;1640;48.504;9.224;2023-02-26T11:31:05;1.40;66.00
3256;DHT22;1640;48.504;9.224;2023-02-26T11:33:36;1.70;68.80
3256;DHT22;1640;48.504;9.224;2023-02-26T11:36:08;1.70;72.50
3256;DHT22;1640;48.504;9.224;2023-02-26T11:38:38;1.50;72.10
3256;DHT22;1640;48.504;9.224;2023-02-26T11:41:06;1.30;70.30
3256;DHT22;1640;48.504;9.224;2023-02-26T11:43:36;1.20;69.90
3256;DHT22;1640;48.504;9.224;2023-02-26T11:46:09;1.30;68.50
3256;DHT22;1640;48.504;9.224;2023-02-26T11:48:45;1.30;69.80
3256;DHT22;1640;48.504;9.224;2023-02-26T11:51:15;1.20;69.00
3256;DHT22;1640;48.504;9.224;2023-02-26T11:53:48;1.10;66.90
3256;DHT22;1640;48.504;9.224;2023-02-26T11:56:25;1.00;65.30
3256;DHT22;1640;48.504;9.224;2023-02-26T11:58:54;1.00;63.70
3256;DHT22;1640;48.504;9.224;2023-02-26T12:01:26;1.10;64.60
3256;DHT22;1640;48.504;9.224;2023-02-26T12:03:58;0.90;63.90
3256;DHT22;1640;48.504;9.224;2023-02-26T12:06:26;0.70;61.40
3256;DHT22;1640;48.504;9.224;2023-02-26T12:08:53;0.80;62.40
3256;DHT22;1640;48.504;9.224;2023-02-26T12:11:47;0.70;59.70
3256;DHT22;1640;48.504;9.224;2023-02-26T12:14:33;0.60;59.70
3256;DHT22;1640;48.504;9.224;2023-02-26T12:17:14;0.60;60.30
3256;DHT22;1640;48.504;9.224;2023-02-26T12:19:51;0.60;57.50
3256;DHT22;1640;48.504;9.224;2023-02-26T12:22:34;0.70;56.60
3256;DHT22;1640;48.504;9.224;2023-02-26T12:25:33;0.60;50.20
3256;DHT22;1640;48.504;9.224;2023-02-26T12:28:30;0.70;50.20
3256;DHT22;1640;48.504;9.224;2023-02-26T12:31:21;0.60;48.50
3256;DHT22;1640;48.504;9.224;2023-02-26T12:33:59;0.40;38.40
3256;DHT22;1640;48.504;9.224;2023-02-26T12:36:43;0.30;33.80
3256;DHT22;1640;48.504;9.224;2023-02-26T12:39:25;0.40;36.40
3256;DHT22;1640;48.504;9.224;2023-02-26T12:42:03;0.50;45.50
3256;DHT22;1640;48.504;9.224;2023-02-26T12:44:49;0.60;51.20
3256;DHT22;1640;48.504;9.224;2023-02-26T12:47:34;0.60;45.70
3256;DHT22;1640;48.504;9.224;2023-02-26T12:50:21;0.50;35.00
3256;DHT22;1640;48.504;9.224;2023-02-26T12:53:21;0.40;27.30
3256;DHT22;1640;48.504;9.224;2023-02-26T12:56:03;0.50;20.20
3256;DHT22;1640;48.504;9.224;2023-02-26T12:58:52;0.50;20.10
3256;DHT22;1640;48.504;9.224;2023-02-26T13:01:47;0.60;12.30
3256;DHT22;1640;48.504;9.224;2023-02-26T13:04:37;0.50;11.20
3256;DHT22;1640;48.504;9.224;2023-02-26T13:10:16;0.80;16.30
3256;DHT22;1640;48.504;9.224;2023-02-26T13:12:54;1.10;36.00
3256;DHT22;1640;48.504;9.224;2023-02-26T13:18:38;1.10;40.60
3256;DHT22;1640;48.504;9.224;2023-02-26T13:21:13;1.30;45.50
3256;DHT22;1640;48.504;9.224;2023-02-26T13:23:47;1.30;50.60
3256;DHT22;1640;48.504;9.224;2023-02-26T13:26:17;1.30;50.60
3256;DHT22;1640;48.504;9.224;2023-02-26T13:28:52;1.20;52.10
3256;DHT22;1640;48.504;9.224;2023-02-26T13:31:25;1.40;52.50
3256;DHT22;1640;48.504;9.224;2023-02-26T13:33:55;1.60;54.20
3256;DHT22;1640;48.504;9.224;2023-02-26T13:36:26;1.80;61.40
3256;DHT22;1640;48.504;9.224;2023-02-26T13:39:11;1.80;63.70
3256;DHT22;1640;48.504;9.224;2023-02-26T13:41:57;1.80;64.00
3256;DHT22;1640;48.504;9.224;2023-02-26T13:44:33;1.70;67.30
3256;DHT22;1640;48.504;9.224;2023-02-26T13:47:22;1.70;66.30
3256;DHT22;1640;48.504;9.224;2023-02-26T13:49:59;1.70;69.20
3256;DHT22;1640;48.504;9.224;2023-02-26T13:52:31;1.90;69.50
3256;DHT22;1640;48.504;9.224;2023-02-26T13:55:00;1.80;70.90
3256;DHT22;1640;48.504;9.224;2023-02-26T13:57:42;1.90;70.20
3256;DHT22;1640;48.504;9.224;2023-02-26T14:00:25;1.80;71.80
3256;DHT22;1640;48.504;9.224;2023-02-26T14:02:54;1.60;69.90
3256;DHT22;1640;48.504;9.224;2023-02-26T14:08:42;1.40;65.90
3256;DHT22;1640;48.504;9.224;2023-02-26T14:14:24;1.10;67.50
3256;DHT22;1640;48.504;9.224;2023-02-26T14:16:54;1.20;74.40
3256;DHT22;1640;48.504;9.224;2023-02-26T14:20:05;1.40;73.40
3256;DHT22;1640;48.504;9.224;2023-02-26T14:22:36;1.40;75.80
3256;DHT22;1640;48.504;9.224;2023-02-26T14:25:14;1.50;72.90
3256;DHT22;1640;48.504;9.224;2023-02-26T14:27:46;1.50;73.60
3256;DHT22;1640;48.504;9.224;2023-02-26T14:30:27;1.60;74.80
3256;DHT22;1640;48.504;9.224;2023-02-26T14:33:07;1.50;75.50
3256;DHT22;1640;48.504;9.224;2023-02-26T14:35:39;1.70;73.80
3256;DHT22;1640;48.504;9.224;2023-02-26T14:38:13;1.70;75.80
3256;DHT22;1640;48.504;9.224;2023-02-26T14:40:46;1.80;76.20
3256;DHT22;1640;48.504;9.224;2023-02-26T14:43:30;1.80;76.10
3256;DHT22;1640;48.504;9.224;2023-02-26T14:46:03;1.80;78.40
3256;DHT22;1640;48.504;9.224;2023-02-26T14:48:32;2.00;76.90
3256;DHT22;1640;48.504;9.224;2023-02-26T14:51:10;2.30;77.80
3256;DHT22;1640;48.504;9.224;2023-02-26T14:57:02;2.20;77.50
3256;DHT22;1640;48.504;9.224;2023-02-26T14:59:52;2.00;75.10
3256;DHT22;1640;48.504;9.224;2023-02-26T15:02:27;1.50;65.20
3256;DHT22;1640;48.504;9.224;2023-02-26T15:05:13;1.20;57.30
3256;DHT22;1640;48.504;9.224;2023-02-26T15:07:54;1.10;50.20
3256;DHT22;1640;48.504;9.224;2023-02-26T15:10:36;0.90;53.10
3256;DHT22;1640;48.504;9.224;2023-02-26T15:13:19;0.80;51.40
3256;DHT22;1640;48.504;9.224;2023-02-26T15:15:54;0.80;47.00
3256;DHT22;1640;48.504;9.224;2023-02-26T15:18:45;0.90;50.90
3256;DHT22;1640;48.504;9.224;2023-02-26T15:21:21;1.20;63.60
3256;DHT22;1640;48.504;9.224;2023-02-26T15:23:54;1.40;68.30
3256;DHT22;1640;48.504;9.224;2023-02-26T15:26:26;1.60;69.00
3256;DHT22;1640;48.504;9.224;2023-02-26T15:28:55;1.70;69.00
3256;DHT22;1640;48.504;9.224;2023-02-26T15:31:29;1.80;71.50
3256;DHT22;1640;48.504;9.224;2023-02-26T15:34:00;1.90;75.20
3256;DHT22;1640;48.504;9.224;2023-02-26T15:36:29;2.00;77.50
3256;DHT22;1640;48.504;9.224;2023-02-26T15:38:59;2.00;77.70
3256;DHT22;1640;48.504;9.224;2023-02-26T15:41:30;1.90;77.90
3256;DHT22;1640;48.504;9.224;2023-02-26T15:44:01;1.60;77.20
3256;DHT22;1640;48.504;9.224;2023-02-26T15:46:33;1.40;73.60
3256;DHT22;1640;48.504;9.224;2023-02-26T15:49:06;1.10;65.30
3256;DHT22;1640;48.504;9.224;2023-02-26T15:51:34;1.00;62.30
3256;DHT22;1640;48.504;9.224;2023-02-26T15:54:02;0.90;61.00
3256;DHT22;1640;48.504;9.224;2023-02-26T15:56:35;0.80;57.70
3256;DHT22;1640;48.504;9.224;2023-02-26T15:59:08;0.80;58.90
3256;DHT22;1640;48.504;9.224;2023-02-26T16:01:39;0.90;62.00
3256;DHT22;1640;48.504;9.224;2023-02-26T16:04:13;0.90;65.20
3256;DHT22;1640;48.504;9.224;2023-02-26T16:06:44;0.80;61.60
3256;DHT22;1640;48.504;9.224;2023-02-26T16:09:19;0.90;63.00
3256;DHT22;1640;48.504;9.224;2023-02-26T16:11:47;0.90;62.00
3256;DHT22;1640;48.504;9.224;2023-02-26T16:14:19;1.00;42.50
3256;DHT22;1640;48.504;9.224;2023-02-26T16:16:50;0.70;20.40
3256;DHT22;1640;48.504;9.224;2023-02-26T16:19:31;0.40;6.60
3256;DHT22;1640;48.504;9.224;2023-02-26T16:22:01;0.30;99.90
3256;DHT22;1640;48.504;9.224;2023-02-26T16:24:32;0.20;99.90
3256;DHT22;1640;48.504;9.224;2023-02-26T16:27:02;0.20;99.90
3256;DHT22;1640;48.504;9.224;2023-02-26T16:29:34;0.20;2.70
3256;DHT22;1640;48.504;9.224;2023-02-26T16:32:03;0.20;6.40
3256;DHT22;1640;48.504;9.224;2023-02-26T16:34:39;0.00;17.50
3256;DHT22;1640;48.504;9.224;2023-02-26T16:37:22;0.10;16.10
3256;DHT22;1640;48.504;9.224;2023-02-26T16:39:53;0.10;14.40
3256;DHT22;1640;48.504;9.224;2023-02-26T16:42:30;0.20;22.40
3256;DHT22;1640;48.504;9.224;2023-02-26T16:45:07;0.10;26.80
3256;DHT22;1640;48.504;9.224;2023-02-26T16:47:41;0.20;24.70
3256;DHT22;1640;48.504;9.224;2023-02-26T16:50:16;0.10;25.80
3256;DHT22;1640;48.504;9.224;2023-02-26T16:52:47;0.00;26.90
3256;DHT22;1640;48.504;9.224;2023-02-26T16:55:17;0.00;25.30
3256;DHT22;1640;48.504;9.224;2023-02-26T16:57:46;0.00;24.20
3256;DHT22;1640;48.504;9.224;2023-02-26T17:00:17;0.00;22.20
3256;DHT22;1640;48.504;9.224;2023-02-26T17:02:56;0.10;25.80